sensor_id;sensor_type;location;lat;lon;timestamp;P1;durP1;ratioP1;P2;durP2;ratioP2
8737;SDS011;4405;49.272;8.590;2022-10-17T00:00:59;4.83;;;2.77;;
8737;SDS011;4405;49.272;8.590;2022-10-17T00:03:25;3.03;;;2.63;;
8737;SDS011;4405;49.272;8.590;2022-10-17T00:05:51;7.70;;;2.70;;
8737;SDS011;4405;49.272;8.590;2022-10-17T00:08:18;9.77;;;3.00;;
8737;SDS011;4405;49.272;8.590;2022-10-17T00:10:45;5.37;;;2.47;;
8737;SDS011;4405;49.272;8.590;2022-10-17T00:13:12;9.73;;;3.00;;
8737;SDS011;4405;49.272;8.590;2022-10-17T00:15:41;3.47;;;2.40;;
8737;SDS011;4405;49.272;8.590;2022-10-17T00:18:08;4.80;;;2.57;;
8737;SDS011;4405;49.272;8.590;2022-10-17T00:20:34;6.30;;;2.57;;
8737;SDS011;4405;49.272;8.590;2022-10-17T00:23:01;2.83;;;2.50;;
8737;SDS011;4405;49.272;8.590;2022-10-17T00:25:27;4.40;;;2.37;;
8737;SDS011;4405;49.272;8.590;2022-10-17T00:27:54;7.37;;;2.50;;
8737;SDS011;4405;49.272;8.590;2022-10-17T00:30:22;4.17;;;2.40;;
8737;SDS011;4405;49.272;8.590;2022-10-17T00:32:48;2.77;;;2.47;;
8737;SDS011;4405;49.272;8.590;2022-10-17T00:35:14;8.53;;;2.50;;
8737;SDS011;4405;49.272;8.590;2022-10-17T00:37:41;4.77;;;2.63;;
8737;SDS011;4405;49.272;8.590;2022-10-17T00:40:08;4.10;;;2.60;;
8737;SDS011;4405;49.272;8.590;2022-10-17T00:42:34;3.10;;;2.80;;
8737;SDS011;4405;49.272;8.590;2022-10-17T00:45:11;4.03;;;2.40;;
8737;SDS011;4405;49.272;8.590;2022-10-17T00:47:40;3.10;;;2.60;;
8737;SDS011;4405;49.272;8.590;2022-10-17T00:50:07;5.27;;;2.23;;
8737;SDS011;4405;49.272;8.590;2022-10-17T00:52:34;5.77;;;2.60;;
8737;SDS011;4405;49.272;8.590;2022-10-17T00:55:02;4.07;;;2.40;;
8737;SDS011;4405;49.272;8.590;2022-10-17T00:57:29;7.60;;;2.63;;
8737;SDS011;4405;49.272;8.590;2022-10-17T00:59:56;3.47;;;2.47;;
8737;SDS011;4405;49.272;8.590;2022-10-17T01:02:24;4.83;;;2.40;;
8737;SDS011;4405;49.272;8.590;2022-10-17T01:04:52;2.93;;;2.70;;
8737;SDS011;4405;49.272;8.590;2022-10-17T01:07:20;3.23;;;2.43;;
8737;SDS011;4405;49.272;8.590;2022-10-17T01:09:46;4.13;;;2.77;;
8737;SDS011;4405;49.272;8.590;2022-10-17T01:12:14;3.70;;;2.60;;
8737;SDS011;4405;49.272;8.590;2022-10-17T01:14:43;6.27;;;2.70;;
8737;SDS011;4405;49.272;8.590;2022-10-17T01:17:15;4.13;;;2.50;;
8737;SDS011;4405;49.272;8.590;2022-10-17T01:19:54;4.40;;;2.90;;
8737;SDS011;4405;49.272;8.590;2022-10-17T01:22:25;4.43;;;2.37;;
8737;SDS011;4405;49.272;8.590;2022-10-17T01:24:59;3.20;;;2.70;;
8737;SDS011;4405;49.272;8.590;2022-10-17T01:30:28;5.23;;;3.00;;
8737;SDS011;4405;49.272;8.590;2022-10-17T01:33:04;10.07;;;2.90;;
8737;SDS011;4405;49.272;8.590;2022-10-17T01:35:35;4.20;;;2.77;;
8737;SDS011;4405;49.272;8.590;2022-10-17T01:38:04;2.90;;;2.50;;
8737;SDS011;4405;49.272;8.590;2022-10-17T01:40:34;4.60;;;2.60;;
8737;SDS011;4405;49.272;8.590;2022-10-17T01:43:02;4.70;;;2.70;;
8737;SDS011;4405;49.272;8.590;2022-10-17T01:45:30;4.37;;;2.40;;
8737;SDS011;4405;49.272;8.590;2022-10-17T01:47:58;4.57;;;2.67;;
8737;SDS011;4405;49.272;8.590;2022-10-17T01:50:30;6.37;;;2.70;;
8737;SDS011;4405;49.272;8.590;2022-10-17T01:52:58;6.47;;;3.00;;
8737;SDS011;4405;49.272;8.590;2022-10-17T01:55:27;3.83;;;2.80;;
8737;SDS011;4405;49.272;8.590;2022-10-17T01:57:56;5.07;;;2.73;;
8737;SDS011;4405;49.272;8.590;2022-10-17T02:00:24;12.00;;;2.60;;
8737;SDS011;4405;49.272;8.590;2022-10-17T02:02:52;3.90;;;2.60;;
8737;SDS011;4405;49.272;8.590;2022-10-17T02:05:20;2.80;;;2.60;;
8737;SDS011;4405;49.272;8.590;2022-10-17T02:07:51;2.60;;;2.40;;
8737;SDS011;4405;49.272;8.590;2022-10-17T02:10:19;3.80;;;2.40;;
8737;SDS011;4405;49.272;8.590;2022-10-17T02:12:48;3.97;;;2.50;;
8737;SDS011;4405;49.272;8.590;2022-10-17T02:15:32;4.67;;;2.33;;
8737;SDS011;4405;49.272;8.590;2022-10-17T02:18:06;3.93;;;2.70;;
8737;SDS011;4405;49.272;8.590;2022-10-17T02:20:36;7.27;;;2.50;;
8737;SDS011;4405;49.272;8.590;2022-10-17T02:23:07;2.90;;;2.50;;
8737;SDS011;4405;49.272;8.590;2022-10-17T02:25:34;2.87;;;2.73;;
8737;SDS011;4405;49.272;8.590;2022-10-17T02:28:04;5.03;;;2.77;;
8737;SDS011;4405;49.272;8.590;2022-10-17T02:30:34;4.23;;;2.50;;
8737;SDS011;4405;49.272;8.590;2022-10-17T02:33:03;7.70;;;2.40;;
8737;SDS011;4405;49.272;8.590;2022-10-17T02:35:32;3.43;;;2.53;;
8737;SDS011;4405;49.272;8.590;2022-10-17T02:38:00;3.10;;;2.80;;
8737;SDS011;4405;49.272;8.590;2022-10-17T02:40:29;4.17;;;2.60;;
8737;SDS011;4405;49.272;8.590;2022-10-17T02:42:57;7.00;;;2.40;;
8737;SDS011;4405;49.272;8.590;2022-10-17T02:45:23;7.50;;;2.27;;
8737;SDS011;4405;49.272;8.590;2022-10-17T02:47:53;4.30;;;2.40;;
8737;SDS011;4405;49.272;8.590;2022-10-17T02:50:23;3.43;;;2.87;;
8737;SDS011;4405;49.272;8.590;2022-10-17T02:52:54;7.57;;;2.90;;
8737;SDS011;4405;49.272;8.590;2022-10-17T02:55:22;4.53;;;2.53;;
8737;SDS011;4405;49.272;8.590;2022-10-17T02:57:51;5.63;;;2.53;;
8737;SDS011;4405;49.272;8.590;2022-10-17T03:00:19;9.07;;;2.87;;
8737;SDS011;4405;49.272;8.590;2022-10-17T03:02:47;9.17;;;2.40;;
8737;SDS011;4405;49.272;8.590;2022-10-17T03:05:14;7.23;;;3.10;;
8737;SDS011;4405;49.272;8.590;2022-10-17T03:07:40;2.73;;;2.40;;
8737;SDS011;4405;49.272;8.590;2022-10-17T03:10:07;6.50;;;2.53;;
8737;SDS011;4405;49.272;8.590;2022-10-17T03:12:33;3.80;;;3.30;;
8737;SDS011;4405;49.272;8.590;2022-10-17T03:15:01;3.50;;;3.20;;
8737;SDS011;4405;49.272;8.590;2022-10-17T03:17:27;3.60;;;2.67;;
8737;SDS011;4405;49.272;8.590;2022-10-17T03:19:53;6.63;;;2.53;;
8737;SDS011;4405;49.272;8.590;2022-10-17T03:22:20;10.13;;;2.60;;
8737;SDS011;4405;49.272;8.590;2022-10-17T03:24:46;3.73;;;2.70;;
8737;SDS011;4405;49.272;8.590;2022-10-17T03:27:12;2.77;;;2.20;;
8737;SDS011;4405;49.272;8.590;2022-10-17T03:29:39;4.97;;;2.30;;
8737;SDS011;4405;49.272;8.590;2022-10-17T03:32:06;4.13;;;2.70;;
8737;SDS011;4405;49.272;8.590;2022-10-17T03:34:33;4.73;;;2.90;;
8737;SDS011;4405;49.272;8.590;2022-10-17T03:36:59;5.87;;;2.67;;
8737;SDS011;4405;49.272;8.590;2022-10-17T03:39:25;6.07;;;2.90;;
8737;SDS011;4405;49.272;8.590;2022-10-17T03:41:52;4.07;;;2.73;;
8737;SDS011;4405;49.272;8.590;2022-10-17T03:44:18;5.37;;;2.60;;
8737;SDS011;4405;49.272;8.590;2022-10-17T03:46:44;3.23;;;2.80;;
8737;SDS011;4405;49.272;8.590;2022-10-17T03:49:12;3.23;;;3.03;;
8737;SDS011;4405;49.272;8.590;2022-10-17T03:51:39;5.20;;;3.10;;
8737;SDS011;4405;49.272;8.590;2022-10-17T03:54:05;7.77;;;3.33;;
8737;SDS011;4405;49.272;8.590;2022-10-17T03:56:31;6.60;;;2.80;;
8737;SDS011;4405;49.272;8.590;2022-10-17T03:58:58;6.67;;;3.30;;
8737;SDS011;4405;49.272;8.590;2022-10-17T04:01:24;5.17;;;3.23;;
8737;SDS011;4405;49.272;8.590;2022-10-17T04:03:50;7.23;;;3.70;;
8737;SDS011;4405;49.272;8.590;2022-10-17T04:06:18;8.03;;;3.27;;
8737;SDS011;4405;49.272;8.590;2022-10-17T04:08:45;5.80;;;3.50;;
8737;SDS011;4405;49.272;8.590;2022-10-17T04:11:13;8.77;;;3.30;;
8737;SDS011;4405;49.272;8.590;2022-10-17T04:13:39;3.60;;;3.30;;
8737;SDS011;4405;49.272;8.590;2022-10-17T04:16:06;6.30;;;3.50;;
8737;SDS011;4405;49.272;8.590;2022-10-17T04:18:33;6.53;;;3.73;;
8737;SDS011;4405;49.272;8.590;2022-10-17T04:20:59;4.07;;;3.30;;
8737;SDS011;4405;49.272;8.590;2022-10-17T04:23:27;5.97;;;3.73;;
8737;SDS011;4405;49.272;8.590;2022-10-17T04:25:54;9.60;;;3.43;;
8737;SDS011;4405;49.272;8.590;2022-10-17T04:28:21;3.13;;;2.77;;
8737;SDS011;4405;49.272;8.590;2022-10-17T04:30:47;6.07;;;3.70;;
8737;SDS011;4405;49.272;8.590;2022-10-17T04:33:20;12.63;;;4.50;;
8737;SDS011;4405;49.272;8.590;2022-10-17T04:35:53;5.47;;;4.60;;
8737;SDS011;4405;49.272;8.590;2022-10-17T04:38:19;4.40;;;4.00;;
8737;SDS011;4405;49.272;8.590;2022-10-17T04:40:47;5.87;;;3.77;;
8737;SDS011;4405;49.272;8.590;2022-10-17T04:43:13;3.60;;;3.40;;
8737;SDS011;4405;49.272;8.590;2022-10-17T04:45:40;3.87;;;3.40;;
8737;SDS011;4405;49.272;8.590;2022-10-17T04:48:06;5.17;;;3.80;;
8737;SDS011;4405;49.272;8.590;2022-10-17T04:50:32;3.87;;;3.43;;
8737;SDS011;4405;49.272;8.590;2022-10-17T04:52:59;6.90;;;3.27;;
8737;SDS011;4405;49.272;8.590;2022-10-17T04:55:25;4.73;;;3.50;;
8737;SDS011;4405;49.272;8.590;2022-10-17T04:57:53;8.30;;;4.00;;
8737;SDS011;4405;49.272;8.590;2022-10-17T05:00:19;7.80;;;3.60;;
8737;SDS011;4405;49.272;8.590;2022-10-17T05:02:45;6.17;;;4.30;;
8737;SDS011;4405;49.272;8.590;2022-10-17T05:05:12;6.17;;;3.80;;
8737;SDS011;4405;49.272;8.590;2022-10-17T05:07:38;6.00;;;4.10;;
8737;SDS011;4405;49.272;8.590;2022-10-17T05:10:05;9.37;;;4.20;;
8737;SDS011;4405;49.272;8.590;2022-10-17T05:12:31;6.50;;;4.20;;
8737;SDS011;4405;49.272;8.590;2022-10-17T05:14:59;7.30;;;4.27;;
8737;SDS011;4405;49.272;8.590;2022-10-17T05:17:25;9.43;;;4.33;;
8737;SDS011;4405;49.272;8.590;2022-10-17T05:19:52;7.30;;;4.00;;
8737;SDS011;4405;49.272;8.590;2022-10-17T05:22:18;6.33;;;4.13;;
8737;SDS011;4405;49.272;8.590;2022-10-17T05:24:45;5.23;;;4.13;;
8737;SDS011;4405;49.272;8.590;2022-10-17T05:27:11;6.30;;;3.37;;
8737;SDS011;4405;49.272;8.590;2022-10-17T05:29:38;8.17;;;4.40;;
8737;SDS011;4405;49.272;8.590;2022-10-17T05:32:06;7.50;;;3.70;;
8737;SDS011;4405;49.272;8.590;2022-10-17T05:34:32;4.97;;;4.07;;
8737;SDS011;4405;49.272;8.590;2022-10-17T05:36:58;9.30;;;3.73;;
8737;SDS011;4405;49.272;8.590;2022-10-17T05:39:25;6.53;;;3.90;;
8737;SDS011;4405;49.272;8.590;2022-10-17T05:41:51;8.53;;;3.67;;
8737;SDS011;4405;49.272;8.590;2022-10-17T05:44:17;6.73;;;3.83;;
8737;SDS011;4405;49.272;8.590;2022-10-17T05:46:44;5.40;;;3.77;;
8737;SDS011;4405;49.272;8.590;2022-10-17T05:49:12;7.33;;;4.10;;
8737;SDS011;4405;49.272;8.590;2022-10-17T05:51:38;9.03;;;4.23;;
8737;SDS011;4405;49.272;8.590;2022-10-17T05:54:05;4.97;;;4.00;;
8737;SDS011;4405;49.272;8.590;2022-10-17T05:56:31;7.70;;;4.00;;
8737;SDS011;4405;49.272;8.590;2022-10-17T05:58:58;10.77;;;4.60;;
8737;SDS011;4405;49.272;8.590;2022-10-17T06:01:24;7.83;;;3.97;;
8737;SDS011;4405;49.272;8.590;2022-10-17T06:03:50;4.30;;;3.90;;
8737;SDS011;4405;49.272;8.590;2022-10-17T06:06:18;7.27;;;5.13;;
8737;SDS011;4405;49.272;8.590;2022-10-17T06:08:45;4.53;;;3.83;;
8737;SDS011;4405;49.272;8.590;2022-10-17T06:11:11;7.03;;;4.00;;
8737;SDS011;4405;49.272;8.590;2022-10-17T06:13:38;8.30;;;3.80;;
8737;SDS011;4405;49.272;8.590;2022-10-17T06:16:04;11.20;;;3.80;;
8737;SDS011;4405;49.272;8.590;2022-10-17T06:18:31;4.40;;;3.83;;
8737;SDS011;4405;49.272;8.590;2022-10-17T06:21:00;7.80;;;4.80;;
8737;SDS011;4405;49.272;8.590;2022-10-17T06:23:28;4.20;;;3.80;;
8737;SDS011;4405;49.272;8.590;2022-10-17T06:25:56;6.47;;;3.33;;
8737;SDS011;4405;49.272;8.590;2022-10-17T06:28:23;8.00;;;3.87;;
8737;SDS011;4405;49.272;8.590;2022-10-17T06:30:49;7.17;;;4.37;;
8737;SDS011;4405;49.272;8.590;2022-10-17T06:33:15;8.30;;;4.23;;
8737;SDS011;4405;49.272;8.590;2022-10-17T06:35:42;7.07;;;4.27;;
8737;SDS011;4405;49.272;8.590;2022-10-17T06:38:08;4.17;;;3.43;;
8737;SDS011;4405;49.272;8.590;2022-10-17T06:40:36;4.93;;;3.20;;
8737;SDS011;4405;49.272;8.590;2022-10-17T06:43:02;4.13;;;3.33;;
8737;SDS011;4405;49.272;8.590;2022-10-17T06:45:29;4.10;;;3.40;;
8737;SDS011;4405;49.272;8.590;2022-10-17T06:47:55;6.23;;;3.70;;
8737;SDS011;4405;49.272;8.590;2022-10-17T06:50:21;5.40;;;4.17;;
8737;SDS011;4405;49.272;8.590;2022-10-17T06:52:49;5.13;;;3.70;;
8737;SDS011;4405;49.272;8.590;2022-10-17T06:55:16;4.33;;;3.70;;
8737;SDS011;4405;49.272;8.590;2022-10-17T06:57:43;9.37;;;3.73;;
8737;SDS011;4405;49.272;8.590;2022-10-17T07:00:10;6.47;;;3.90;;
8737;SDS011;4405;49.272;8.590;2022-10-17T07:02:37;7.93;;;3.87;;
8737;SDS011;4405;49.272;8.590;2022-10-17T07:05:03;6.43;;;3.50;;
8737;SDS011;4405;49.272;8.590;2022-10-17T07:07:30;4.53;;;3.50;;
8737;SDS011;4405;49.272;8.590;2022-10-17T07:09:57;6.70;;;3.23;;
8737;SDS011;4405;49.272;8.590;2022-10-17T07:12:23;14.73;;;7.17;;
8737;SDS011;4405;49.272;8.590;2022-10-17T07:14:51;6.63;;;3.53;;
8737;SDS011;4405;49.272;8.590;2022-10-17T07:17:17;5.10;;;3.30;;
8737;SDS011;4405;49.272;8.590;2022-10-17T07:19:44;6.50;;;3.53;;
8737;SDS011;4405;49.272;8.590;2022-10-17T07:22:11;5.87;;;3.60;;
8737;SDS011;4405;49.272;8.590;2022-10-17T07:24:37;9.80;;;3.50;;
8737;SDS011;4405;49.272;8.590;2022-10-17T07:27:04;3.70;;;3.33;;
8737;SDS011;4405;49.272;8.590;2022-10-17T07:29:30;3.73;;;3.20;;
8737;SDS011;4405;49.272;8.590;2022-10-17T07:31:58;6.67;;;3.27;;
8737;SDS011;4405;49.272;8.590;2022-10-17T07:34:24;5.20;;;3.13;;
8737;SDS011;4405;49.272;8.590;2022-10-17T07:36:54;4.43;;;2.80;;
8737;SDS011;4405;49.272;8.590;2022-10-17T07:39:21;5.13;;;3.23;;
8737;SDS011;4405;49.272;8.590;2022-10-17T07:41:47;10.60;;;2.83;;
8737;SDS011;4405;49.272;8.590;2022-10-17T07:44:14;11.20;;;3.10;;
8737;SDS011;4405;49.272;8.590;2022-10-17T07:46:41;6.87;;;2.70;;
8737;SDS011;4405;49.272;8.590;2022-10-17T07:49:08;7.30;;;3.00;;
8737;SDS011;4405;49.272;8.590;2022-10-17T07:51:35;5.13;;;3.10;;
8737;SDS011;4405;49.272;8.590;2022-10-17T07:54:01;9.13;;;3.00;;
8737;SDS011;4405;49.272;8.590;2022-10-17T07:56:29;6.23;;;2.73;;
8737;SDS011;4405;49.272;8.590;2022-10-17T07:58:56;7.50;;;6.57;;
8737;SDS011;4405;49.272;8.590;2022-10-17T08:01:22;9.40;;;3.60;;
8737;SDS011;4405;49.272;8.590;2022-10-17T08:03:49;6.83;;;3.00;;
8737;SDS011;4405;49.272;8.590;2022-10-17T08:06:17;4.37;;;2.93;;
8737;SDS011;4405;49.272;8.590;2022-10-17T08:08:44;10.47;;;3.00;;
8737;SDS011;4405;49.272;8.590;2022-10-17T08:11:11;8.37;;;3.07;;
8737;SDS011;4405;49.272;8.590;2022-10-17T08:13:38;12.30;;;2.90;;
8737;SDS011;4405;49.272;8.590;2022-10-17T08:16:05;7.50;;;3.00;;
8737;SDS011;4405;49.272;8.590;2022-10-17T08:18:32;9.80;;;2.90;;
8737;SDS011;4405;49.272;8.590;2022-10-17T08:20:59;4.70;;;2.90;;
8737;SDS011;4405;49.272;8.590;2022-10-17T08:23:26;6.97;;;3.13;;
8737;SDS011;4405;49.272;8.590;2022-10-17T08:25:53;6.00;;;2.77;;
8737;SDS011;4405;49.272;8.590;2022-10-17T08:28:19;4.63;;;3.27;;
8737;SDS011;4405;49.272;8.590;2022-10-17T08:30:45;4.30;;;3.23;;
8737;SDS011;4405;49.272;8.590;2022-10-17T08:33:12;6.90;;;2.80;;
8737;SDS011;4405;49.272;8.590;2022-10-17T08:35:38;6.00;;;3.20;;
8737;SDS011;4405;49.272;8.590;2022-10-17T08:38:04;5.07;;;2.97;;
8737;SDS011;4405;49.272;8.590;2022-10-17T08:40:32;8.97;;;3.10;;
8737;SDS011;4405;49.272;8.590;2022-10-17T08:43:09;6.83;;;3.13;;
8737;SDS011;4405;49.272;8.590;2022-10-17T08:45:38;9.33;;;2.80;;
8737;SDS011;4405;49.272;8.590;2022-10-17T08:48:08;8.93;;;3.30;;
8737;SDS011;4405;49.272;8.590;2022-10-17T08:50:36;4.50;;;4.10;;
8737;SDS011;4405;49.272;8.590;2022-10-17T08:53:05;8.43;;;4.33;;
8737;SDS011;4405;49.272;8.590;2022-10-17T08:55:34;5.37;;;3.47;;
8737;SDS011;4405;49.272;8.590;2022-10-17T08:58:01;11.50;;;3.40;;
8737;SDS011;4405;49.272;8.590;2022-10-17T09:00:28;8.63;;;3.03;;
8737;SDS011;4405;49.272;8.590;2022-10-17T09:03:06;5.50;;;3.17;;
8737;SDS011;4405;49.272;8.590;2022-10-17T09:05:40;6.13;;;3.30;;
8737;SDS011;4405;49.272;8.590;2022-10-17T09:08:14;5.70;;;3.40;;
8737;SDS011;4405;49.272;8.590;2022-10-17T09:10:51;11.27;;;3.30;;
8737;SDS011;4405;49.272;8.590;2022-10-17T09:13:22;4.73;;;3.20;;
8737;SDS011;4405;49.272;8.590;2022-10-17T09:15:59;6.80;;;2.93;;
8737;SDS011;4405;49.272;8.590;2022-10-17T09:18:29;6.07;;;2.87;;
8737;SDS011;4405;49.272;8.590;2022-10-17T09:20:58;6.27;;;3.03;;
8737;SDS011;4405;49.272;8.590;2022-10-17T09:23:26;8.27;;;3.00;;
8737;SDS011;4405;49.272;8.590;2022-10-17T09:25:57;4.27;;;2.67;;
8737;SDS011;4405;49.272;8.590;2022-10-17T09:28:24;4.73;;;2.47;;
8737;SDS011;4405;49.272;8.590;2022-10-17T09:30:54;5.60;;;2.30;;
8737;SDS011;4405;49.272;8.590;2022-10-17T09:33:23;4.33;;;2.40;;
8737;SDS011;4405;49.272;8.590;2022-10-17T09:35:52;6.47;;;2.60;;
8737;SDS011;4405;49.272;8.590;2022-10-17T09:38:20;5.23;;;2.40;;
8737;SDS011;4405;49.272;8.590;2022-10-17T09:40:48;7.53;;;2.80;;
8737;SDS011;4405;49.272;8.590;2022-10-17T09:43:16;2.60;;;2.10;;
8737;SDS011;4405;49.272;8.590;2022-10-17T09:45:44;4.93;;;2.57;;
8737;SDS011;4405;49.272;8.590;2022-10-17T09:48:15;5.10;;;2.57;;
8737;SDS011;4405;49.272;8.590;2022-10-17T09:50:44;5.00;;;2.80;;
8737;SDS011;4405;49.272;8.590;2022-10-17T09:53:11;4.87;;;3.00;;
8737;SDS011;4405;49.272;8.590;2022-10-17T09:55:39;22.77;;;4.93;;
8737;SDS011;4405;49.272;8.590;2022-10-17T09:58:06;7.63;;;2.97;;
8737;SDS011;4405;49.272;8.590;2022-10-17T10:00:35;4.63;;;2.70;;
8737;SDS011;4405;49.272;8.590;2022-10-17T10:03:09;2.57;;;2.43;;
8737;SDS011;4405;49.272;8.590;2022-10-17T10:05:35;5.97;;;2.23;;
8737;SDS011;4405;49.272;8.590;2022-10-17T10:08:02;3.93;;;2.40;;
8737;SDS011;4405;49.272;8.590;2022-10-17T10:10:29;2.77;;;2.40;;
8737;SDS011;4405;49.272;8.590;2022-10-17T10:13:04;8.77;;;2.77;;
8737;SDS011;4405;49.272;8.590;2022-10-17T10:15:32;5.23;;;2.60;;
8737;SDS011;4405;49.272;8.590;2022-10-17T10:18:00;7.87;;;2.47;;
8737;SDS011;4405;49.272;8.590;2022-10-17T10:20:28;6.87;;;2.37;;
8737;SDS011;4405;49.272;8.590;2022-10-17T10:25:51;5.33;;;2.40;;
8737;SDS011;4405;49.272;8.590;2022-10-17T10:28:18;3.60;;;2.50;;
8737;SDS011;4405;49.272;8.590;2022-10-17T10:30:46;4.80;;;2.40;;
8737;SDS011;4405;49.272;8.590;2022-10-17T10:33:14;5.03;;;2.70;;
8737;SDS011;4405;49.272;8.590;2022-10-17T10:35:40;6.60;;;2.37;;
8737;SDS011;4405;49.272;8.590;2022-10-17T10:38:07;2.70;;;2.50;;
8737;SDS011;4405;49.272;8.590;2022-10-17T10:40:35;3.63;;;2.43;;
8737;SDS011;4405;49.272;8.590;2022-10-17T10:43:04;8.20;;;2.67;;
8737;SDS011;4405;49.272;8.590;2022-10-17T10:45:38;3.97;;;2.80;;
8737;SDS011;4405;49.272;8.590;2022-10-17T10:48:10;9.70;;;2.53;;
8737;SDS011;4405;49.272;8.590;2022-10-17T10:50:41;7.17;;;2.57;;
8737;SDS011;4405;49.272;8.590;2022-10-17T10:53:12;5.23;;;2.80;;
8737;SDS011;4405;49.272;8.590;2022-10-17T10:55:41;5.70;;;2.50;;
8737;SDS011;4405;49.272;8.590;2022-10-17T10:58:19;3.73;;;2.53;;
8737;SDS011;4405;49.272;8.590;2022-10-17T11:00:48;6.03;;;2.40;;
8737;SDS011;4405;49.272;8.590;2022-10-17T11:03:17;4.13;;;2.50;;
8737;SDS011;4405;49.272;8.590;2022-10-17T11:05:47;3.43;;;2.47;;
8737;SDS011;4405;49.272;8.590;2022-10-17T11:08:17;3.53;;;2.30;;
8737;SDS011;4405;49.272;8.590;2022-10-17T11:10:48;5.07;;;2.33;;
8737;SDS011;4405;49.272;8.590;2022-10-17T11:13:19;2.50;;;2.40;;
8737;SDS011;4405;49.272;8.590;2022-10-17T11:15:50;4.07;;;2.40;;
8737;SDS011;4405;49.272;8.590;2022-10-17T11:18:20;9.93;;;2.40;;
8737;SDS011;4405;49.272;8.590;2022-10-17T11:20:49;4.80;;;2.30;;
8737;SDS011;4405;49.272;8.590;2022-10-17T11:23:18;5.67;;;2.50;;
8737;SDS011;4405;49.272;8.590;2022-10-17T11:25:46;6.47;;;2.40;;
8737;SDS011;4405;49.272;8.590;2022-10-17T11:28:14;4.63;;;2.10;;
8737;SDS011;4405;49.272;8.590;2022-10-17T11:30:43;2.93;;;2.43;;
8737;SDS011;4405;49.272;8.590;2022-10-17T11:33:09;3.23;;;2.33;;
8737;SDS011;4405;49.272;8.590;2022-10-17T11:35:39;7.93;;;2.50;;
8737;SDS011;4405;49.272;8.590;2022-10-17T11:38:11;4.90;;;2.57;;
8737;SDS011;4405;49.272;8.590;2022-10-17T11:40:40;2.83;;;2.20;;
8737;SDS011;4405;49.272;8.590;2022-10-17T11:43:10;3.97;;;2.40;;
8737;SDS011;4405;49.272;8.590;2022-10-17T11:45:39;3.40;;;1.97;;
8737;SDS011;4405;49.272;8.590;2022-10-17T11:48:09;3.40;;;2.20;;
8737;SDS011;4405;49.272;8.590;2022-10-17T11:50:38;4.63;;;2.23;;
8737;SDS011;4405;49.272;8.590;2022-10-17T11:53:10;3.80;;;2.37;;
8737;SDS011;4405;49.272;8.590;2022-10-17T11:55:38;5.47;;;2.20;;
8737;SDS011;4405;49.272;8.590;2022-10-17T11:58:17;5.33;;;2.20;;
8737;SDS011;4405;49.272;8.590;2022-10-17T12:00:51;6.00;;;2.33;;
8737;SDS011;4405;49.272;8.590;2022-10-17T12:03:22;2.27;;;2.17;;
8737;SDS011;4405;49.272;8.590;2022-10-17T12:05:54;3.77;;;2.33;;
8737;SDS011;4405;49.272;8.590;2022-10-17T12:08:24;2.20;;;2.10;;
8737;SDS011;4405;49.272;8.590;2022-10-17T12:10:54;3.07;;;2.20;;
8737;SDS011;4405;49.272;8.590;2022-10-17T12:24:22;4.50;;;2.00;;
8737;SDS011;4405;49.272;8.590;2022-10-17T12:26:51;4.83;;;2.13;;
8737;SDS011;4405;49.272;8.590;2022-10-17T12:29:22;2.20;;;2.00;;
8737;SDS011;4405;49.272;8.590;2022-10-17T12:31:50;4.27;;;2.53;;
8737;SDS011;4405;49.272;8.590;2022-10-17T12:34:17;6.20;;;2.50;;
8737;SDS011;4405;49.272;8.590;2022-10-17T12:36:45;13.27;;;2.10;;
8737;SDS011;4405;49.272;8.590;2022-10-17T12:42:31;2.33;;;2.13;;
8737;SDS011;4405;49.272;8.590;2022-10-17T12:44:58;5.97;;;2.20;;
8737;SDS011;4405;49.272;8.590;2022-10-17T12:47:28;2.30;;;2.10;;
8737;SDS011;4405;49.272;8.590;2022-10-17T12:50:01;5.17;;;2.33;;
8737;SDS011;4405;49.272;8.590;2022-10-17T12:55:12;5.77;;;2.50;;
8737;SDS011;4405;49.272;8.590;2022-10-17T12:57:48;4.90;;;2.40;;
8737;SDS011;4405;49.272;8.590;2022-10-17T13:00:17;2.47;;;2.10;;
8737;SDS011;4405;49.272;8.590;2022-10-17T13:02:45;3.93;;;2.20;;
8737;SDS011;4405;49.272;8.590;2022-10-17T13:05:13;7.20;;;2.47;;
8737;SDS011;4405;49.272;8.590;2022-10-17T13:07:41;8.63;;;2.23;;
8737;SDS011;4405;49.272;8.590;2022-10-17T13:10:16;5.00;;;2.70;;
8737;SDS011;4405;49.272;8.590;2022-10-17T13:12:43;3.87;;;2.33;;
8737;SDS011;4405;49.272;8.590;2022-10-17T13:15:11;5.47;;;2.47;;
8737;SDS011;4405;49.272;8.590;2022-10-17T13:17:41;3.37;;;2.20;;
8737;SDS011;4405;49.272;8.590;2022-10-17T13:20:15;8.10;;;2.57;;
8737;SDS011;4405;49.272;8.590;2022-10-17T13:22:43;5.17;;;2.53;;
8737;SDS011;4405;49.272;8.590;2022-10-17T13:25:13;6.37;;;2.70;;
8737;SDS011;4405;49.272;8.590;2022-10-17T13:27:40;8.80;;;2.73;;
8737;SDS011;4405;49.272;8.590;2022-10-17T13:32:49;3.07;;;2.20;;
8737;SDS011;4405;49.272;8.590;2022-10-17T13:35:16;5.90;;;2.63;;
8737;SDS011;4405;49.272;8.590;2022-10-17T13:37:43;6.33;;;2.50;;
8737;SDS011;4405;49.272;8.590;2022-10-17T13:40:14;6.23;;;2.50;;
8737;SDS011;4405;49.272;8.590;2022-10-17T13:42:41;3.00;;;2.40;;
8737;SDS011;4405;49.272;8.590;2022-10-17T13:45:10;5.80;;;2.47;;
8737;SDS011;4405;49.272;8.590;2022-10-17T13:47:38;3.63;;;2.30;;
8737;SDS011;4405;49.272;8.590;2022-10-17T13:50:06;10.23;;;2.50;;
8737;SDS011;4405;49.272;8.590;2022-10-17T13:52:32;6.67;;;2.23;;
8737;SDS011;4405;49.272;8.590;2022-10-17T13:55:05;4.57;;;2.50;;
8737;SDS011;4405;49.272;8.590;2022-10-17T13:57:32;3.10;;;2.40;;
8737;SDS011;4405;49.272;8.590;2022-10-17T13:59:59;9.13;;;2.40;;
8737;SDS011;4405;49.272;8.590;2022-10-17T14:02:27;8.53;;;2.43;;
8737;SDS011;4405;49.272;8.590;2022-10-17T14:05:00;3.73;;;2.60;;
8737;SDS011;4405;49.272;8.590;2022-10-17T14:07:30;3.63;;;2.30;;
8737;SDS011;4405;49.272;8.590;2022-10-17T14:09:58;7.90;;;2.70;;
8737;SDS011;4405;49.272;8.590;2022-10-17T14:12:24;3.47;;;2.20;;
8737;SDS011;4405;49.272;8.590;2022-10-17T14:14:51;2.40;;;2.20;;
8737;SDS011;4405;49.272;8.590;2022-10-17T14:17:20;4.43;;;2.37;;
8737;SDS011;4405;49.272;8.590;2022-10-17T14:19:49;7.00;;;2.47;;
8737;SDS011;4405;49.272;8.590;2022-10-17T14:22:22;4.87;;;2.43;;
8737;SDS011;4405;49.272;8.590;2022-10-17T14:24:50;2.47;;;2.30;;
8737;SDS011;4405;49.272;8.590;2022-10-17T14:27:27;4.87;;;2.30;;
8737;SDS011;4405;49.272;8.590;2022-10-17T14:29:54;7.00;;;2.80;;
8737;SDS011;4405;49.272;8.590;2022-10-17T14:32:24;4.57;;;2.60;;
8737;SDS011;4405;49.272;8.590;2022-10-17T14:34:51;3.80;;;2.40;;
8737;SDS011;4405;49.272;8.590;2022-10-17T14:37:23;3.43;;;2.33;;
8737;SDS011;4405;49.272;8.590;2022-10-17T14:39:55;4.83;;;2.63;;
8737;SDS011;4405;49.272;8.590;2022-10-17T14:42:23;7.27;;;2.30;;
8737;SDS011;4405;49.272;8.590;2022-10-17T14:44:50;5.87;;;2.50;;
8737;SDS011;4405;49.272;8.590;2022-10-17T14:47:19;2.33;;;2.07;;
8737;SDS011;4405;49.272;8.590;2022-10-17T14:49:48;3.57;;;2.20;;
8737;SDS011;4405;49.272;8.590;2022-10-17T14:52:25;9.13;;;2.60;;
8737;SDS011;4405;49.272;8.590;2022-10-17T14:54:51;4.83;;;2.50;;
8737;SDS011;4405;49.272;8.590;2022-10-17T14:57:22;5.10;;;2.60;;
8737;SDS011;4405;49.272;8.590;2022-10-17T14:59:48;4.03;;;2.23;;
8737;SDS011;4405;49.272;8.590;2022-10-17T15:02:15;4.03;;;2.53;;
8737;SDS011;4405;49.272;8.590;2022-10-17T15:04:41;3.47;;;2.50;;
8737;SDS011;4405;49.272;8.590;2022-10-17T15:07:09;4.07;;;2.40;;
8737;SDS011;4405;49.272;8.590;2022-10-17T15:09:37;6.47;;;2.33;;
8737;SDS011;4405;49.272;8.590;2022-10-17T15:12:05;6.27;;;2.57;;
8737;SDS011;4405;49.272;8.590;2022-10-17T15:14:33;6.27;;;2.33;;
8737;SDS011;4405;49.272;8.590;2022-10-17T15:16:59;8.33;;;2.57;;
8737;SDS011;4405;49.272;8.590;2022-10-17T15:19:26;5.53;;;2.60;;
8737;SDS011;4405;49.272;8.590;2022-10-17T15:21:52;5.43;;;2.67;;
8737;SDS011;4405;49.272;8.590;2022-10-17T15:24:18;4.40;;;2.17;;
8737;SDS011;4405;49.272;8.590;2022-10-17T15:26:45;5.20;;;2.40;;
8737;SDS011;4405;49.272;8.590;2022-10-17T15:29:12;4.20;;;2.43;;
8737;SDS011;4405;49.272;8.590;2022-10-17T15:31:41;4.27;;;2.20;;
8737;SDS011;4405;49.272;8.590;2022-10-17T15:34:07;4.07;;;2.30;;
8737;SDS011;4405;49.272;8.590;2022-10-17T15:36:34;3.53;;;2.50;;
8737;SDS011;4405;49.272;8.590;2022-10-17T15:39:02;4.30;;;2.63;;
8737;SDS011;4405;49.272;8.590;2022-10-17T15:41:29;3.73;;;2.50;;
8737;SDS011;4405;49.272;8.590;2022-10-17T15:43:55;5.30;;;2.77;;
8737;SDS011;4405;49.272;8.590;2022-10-17T15:46:23;5.70;;;2.43;;